Time;durP1;ratioP1;P1;durP2;ratioP2;P2;SDS_P1;SDS_P2;PMS_P1;PMS_P2;Temp;Humidity;BMP_temperature;BMP_pressure;BME280_temperature;BME280_humidity;BME280_pressure;Samples;Min_cycle;Max_cycle;Signal;HPM_P1;HPM_P2
2021/06/19 00:01:57;;;;;;;5.50;4.23;;;29.70;91.00;;;;;;5031903;28;20815;-69
2021/06/19 00:04:24;;;;;;;4.13;3.47;;;29.70;91.40;;;;;;5031270;28;20465;-69
2021/06/19 00:06:51;;;;;;;5.20;3.77;;;29.70;91.00;;;;;;5031146;28;20851;-69
2021/06/19 00:09:19;;;;;;;4.60;3.70;;;29.60;91.00;;;;;;5030553;28;20458;-69
2021/06/19 00:11:46;;;;;;;3.40;3.20;;;29.60;91.10;;;;;;5031478;28;20438;-69
2021/06/19 00:14:13;;;;;;;3.97;3.67;;;29.60;91.10;;;;;;5031363;28;20807;-69
2021/06/19 00:16:39;;;;;;;3.60;3.30;;;29.60;91.10;;;;;;5027038;28;20519;-69
2021/06/19 00:19:06;;;;;;;4.47;3.30;;;29.60;91.20;;;;;;5031199;28;20470;-69
2021/06/19 00:21:32;;;;;;;4.83;4.00;;;29.60;91.20;;;;;;5031038;28;20443;-69
2021/06/19 00:23:59;;;;;;;4.33;4.00;;;29.50;91.20;;;;;;5030563;28;20540;-69
2021/06/19 00:26:27;;;;;;;4.37;3.40;;;29.50;91.30;;;;;;5029937;28;20791;-70
2021/06/19 00:28:54;;;;;;;6.33;3.47;;;29.50;91.60;;;;;;5030476;28;20507;-70
2021/06/19 00:31:20;;;;;;;4.13;3.83;;;29.50;91.30;;;;;;5018734;28;20450;-71
2021/06/19 00:33:47;;;;;;;3.83;3.53;;;29.40;91.30;;;;;;5020447;28;20486;-70
2021/06/19 00:36:14;;;;;;;3.50;3.20;;;29.40;91.40;;;;;;5028837;28;20458;-70
2021/06/19 00:38:40;;;;;;;3.60;3.20;;;29.40;91.40;;;;;;5030754;28;20553;-69
2021/06/19 00:41:07;;;;;;;3.90;3.53;;;29.40;91.40;;;;;;5031203;28;20446;-69
2021/06/19 00:43:35;;;;;;;4.37;3.60;;;29.40;91.50;;;;;;5031276;28;20443;-70
2021/06/19 00:46:01;;;;;;;3.80;3.50;;;29.40;91.50;;;;;;5030534;28;20492;-70
2021/06/19 00:48:28;;;;;;;3.63;2.93;;;29.40;91.60;;;;;;5030988;28;20516;-70
2021/06/19 00:50:55;;;;;;;3.60;3.30;;;29.30;91.60;;;;;;5029915;28;20485;-70
2021/06/19 00:53:22;;;;;;;3.80;3.50;;;29.30;91.70;;;;;;5031337;28;20450;-70
2021/06/19 00:55:49;;;;;;;3.80;3.50;;;29.30;91.70;;;;;;5031128;28;20477;-70
2021/06/19 00:58:16;;;;;;;5.53;3.33;;;29.30;91.80;;;;;;5019999;28;20496;-70
2021/06/19 01:00:44;;;;;;;4.70;3.43;;;29.20;91.70;;;;;;5027218;28;20449;-70
2021/06/19 01:03:10;;;;;;;3.60;3.30;;;29.20;91.80;;;;;;5026482;28;20513;-69
2021/06/19 01:05:37;;;;;;;4.17;3.70;;;29.20;91.80;;;;;;5012073;28;20820;-70
2021/06/19 01:08:04;;;;;;;3.07;2.87;;;29.20;91.90;;;;;;5023855;28;20769;-69
2021/06/19 01:10:31;;;;;;;3.83;3.53;;;29.10;91.90;;;;;;5031247;28;20438;-69
2021/06/19 01:12:59;;;;;;;3.80;3.50;;;29.20;92.00;;;;;;5030362;28;20520;-69
2021/06/19 01:15:26;;;;;;;5.43;3.30;;;29.10;92.00;;;;;;5031287;28;20461;-69
2021/06/19 01:17:53;;;;;;;3.50;3.30;;;29.10;92.10;;;;;;5030474;28;20458;-69
2021/06/19 01:20:22;;;;;;;3.13;2.93;;;29.10;92.10;;;;;;5034702;28;20478;-69
2021/06/19 01:22:52;;;;;;;4.40;3.47;;;29.10;92.10;;;;;;5034898;28;20450;-69
2021/06/19 01:25:21;;;;;;;3.23;3.00;;;29.00;92.20;;;;;;5035122;28;20442;-69
2021/06/19 01:27:52;;;;;;;4.00;3.70;;;29.00;92.20;;;;;;5033750;28;20516;-69
2021/06/19 01:30:20;;;;;;;3.70;3.40;;;29.00;92.30;;;;;;5034022;28;20504;-69
2021/06/19 01:32:48;;;;;;;3.93;3.13;;;29.00;92.30;;;;;;5032958;28;20462;-68
2021/06/19 01:35:15;;;;;;;3.73;3.43;;;29.00;92.40;;;;;;5034324;28;20811;-68
2021/06/19 01:37:44;;;;;;;3.23;3.03;;;29.00;92.40;;;;;;5033698;28;20446;-68
2021/06/19 01:40:14;;;;;;;3.13;2.93;;;28.90;92.50;;;;;;5033960;28;20478;-69
2021/06/19 01:42:44;;;;;;;3.67;3.37;;;28.90;92.50;;;;;;5022823;28;20773;-68
2021/06/19 01:45:16;;;;;;;4.80;4.03;;;28.90;92.60;;;;;;5033262;28;20451;-69
2021/06/19 01:47:43;;;;;;;4.17;3.63;;;28.80;92.60;;;;;;5034381;28;20448;-68
2021/06/19 01:50:13;;;;;;;4.20;3.90;;;28.90;92.60;;;;;;5032577;28;20942;-68
2021/06/19 01:52:40;;;;;;;3.53;3.17;;;28.80;92.70;;;;;;5029347;28;20450;-68
2021/06/19 01:55:08;;;;;;;4.37;3.67;;;28.80;92.70;;;;;;5034120;28;20819;-68
2021/06/19 01:57:38;;;;;;;4.50;3.77;;;28.80;92.70;;;;;;5033788;28;20780;-68
2021/06/19 02:00:09;;;;;;;3.20;2.90;;;28.80;92.80;;;;;;5034417;28;20473;-69
2021/06/19 02:02:35;;;;;;;3.93;3.50;;;28.70;92.90;;;;;;5033827;28;20843;-68
2021/06/19 02:05:02;;;;;;;3.80;2.90;;;28.70;92.90;;;;;;5031304;28;20894;-69
2021/06/19 02:07:29;;;;;;;3.00;2.70;;;28.70;92.90;;;;;;5034161;28;20449;-69
2021/06/19 02:09:56;;;;;;;3.53;3.20;;;28.70;93.00;;;;;;5033807;28;20450;-69
2021/06/19 02:12:22;;;;;;;3.23;2.67;;;28.70;93.00;;;;;;5034106;28;20500;-68
2021/06/19 02:14:49;;;;;;;4.13;2.90;;;28.70;93.10;;;;;;5033283;28;20458;-68
2021/06/19 02:17:17;;;;;;;4.20;3.80;;;28.70;93.10;;;;;;5034205;28;20984;-69
2021/06/19 02:19:45;;;;;;;3.20;2.90;;;28.60;93.10;;;;;;5033772;28;20524;-68
2021/06/19 02:22:11;;;;;;;3.93;3.63;;;28.60;93.20;;;;;;5033394;28;20503;-68
2021/06/19 02:24:38;;;;;;;3.20;2.90;;;28.60;93.20;;;;;;5034036;28;20830;-68
2021/06/19 02:27:10;;;;;;;3.53;3.27;;;28.60;93.30;;;;;;5032836;28;20545;-69
2021/06/19 02:29:37;;;;;;;3.30;3.10;;;28.50;93.30;;;;;;5026775;28;20459;-68
2021/06/19 02:32:04;;;;;;;3.50;3.30;;;28.50;93.30;;;;;;5033387;28;20445;-68
2021/06/19 02:34:33;;;;;;;4.57;4.27;;;28.50;93.40;;;;;;5023676;28;20490;-68
2021/06/19 02:37:00;;;;;;;3.40;3.10;;;28.50;93.50;;;;;;5019893;28;20449;-69
2021/06/19 02:39:27;;;;;;;3.67;3.37;;;28.50;93.50;;;;;;5033199;28;20482;-68
2021/06/19 02:41:54;;;;;;;3.43;3.13;;;28.40;93.50;;;;;;5033523;28;20454;-68
2021/06/19 02:44:20;;;;;;;4.40;3.60;;;28.40;93.60;;;;;;5033399;28;20969;-68
2021/06/19 02:46:47;;;;;;;3.80;3.20;;;28.40;93.70;;;;;;5032901;28;20819;-69
2021/06/19 02:49:14;;;;;;;3.70;3.40;;;28.40;93.70;;;;;;5033495;28;20449;-68
2021/06/19 02:51:42;;;;;;;2.97;2.70;;;28.40;93.80;;;;;;5028816;28;20462;-69
2021/06/19 02:54:09;;;;;;;3.50;3.20;;;28.30;93.80;;;;;;5033299;28;20450;-69
2021/06/19 02:56:36;;;;;;;3.33;3.03;;;28.30;93.90;;;;;;5033767;28;20810;-69
2021/06/19 02:59:02;;;;;;;3.47;3.17;;;28.30;93.90;;;;;;5032156;28;20458;-69
2021/06/19 03:01:29;;;;;;;3.77;3.37;;;28.30;93.90;;;;;;5033372;28;20435;-69
2021/06/19 03:03:56;;;;;;;2.73;2.53;;;28.30;94.00;;;;;;5032769;28;20769;-69
2021/06/19 03:06:22;;;;;;;3.33;3.03;;;28.30;94.00;;;;;;5032373;28;20449;-69
2021/06/19 03:08:50;;;;;;;3.60;3.30;;;28.30;94.10;;;;;;5032649;28;20439;-69
2021/06/19 03:11:17;;;;;;;3.43;2.50;;;28.20;94.10;;;;;;5032433;28;20489;-69
2021/06/19 03:13:44;;;;;;;2.80;2.60;;;28.20;94.10;;;;;;5032479;28;20477;-69
2021/06/19 03:16:11;;;;;;;4.10;2.83;;;28.20;94.20;;;;;;5032381;28;20457;-70
2021/06/19 03:18:37;;;;;;;2.90;2.70;;;28.20;94.20;;;;;;5030364;28;20858;-69
2021/06/19 03:21:04;;;;;;;3.33;3.03;;;28.20;94.30;;;;;;5031448;28;20482;-69
2021/06/19 03:23:31;;;;;;;3.73;3.20;;;28.10;94.30;;;;;;5031813;28;20442;-69
2021/06/19 03:25:59;;;;;;;4.43;3.37;;;28.10;94.30;;;;;;5032567;28;20438;-69
2021/06/19 03:28:26;;;;;;;5.33;2.70;;;28.10;94.30;;;;;;5032478;28;20446;-69
2021/06/19 03:30:53;;;;;;;3.40;2.70;;;28.10;94.40;;;;;;5032222;28;20450;-68
2021/06/19 03:33:19;;;;;;;3.27;3.07;;;28.10;94.50;;;;;;5029104;28;20973;-68
2021/06/19 03:35:47;;;;;;;2.80;2.50;;;28.10;94.50;;;;;;5032713;28;20442;-69
2021/06/19 03:38:14;;;;;;;2.63;2.43;;;28.00;94.50;;;;;;5032131;28;20811;-69
2021/06/19 03:40:40;;;;;;;3.50;3.20;;;28.00;94.60;;;;;;5032079;28;20478;-69
2021/06/19 03:43:08;;;;;;;2.50;2.30;;;28.00;94.60;;;;;;5031973;28;20442;-69
2021/06/19 03:45:37;;;;;;;2.80;2.60;;;28.00;94.70;;;;;;5032177;28;20470;-68
2021/06/19 03:48:05;;;;;;;2.77;2.57;;;28.00;94.70;;;;;;5031973;28;20448;-69
2021/06/19 03:50:32;;;;;;;3.83;3.10;;;28.00;94.70;;;;;;5032462;28;20443;-69
2021/06/19 03:53:00;;;;;;;3.60;3.30;;;27.90;94.70;;;;;;5031459;28;20462;-68
2021/06/19 03:55:28;;;;;;;3.00;2.70;;;27.90;94.70;;;;;;5031489;28;20918;-68
2021/06/19 03:57:56;;;;;;;3.20;2.90;;;27.90;94.80;;;;;;5031927;28;20942;-69
2021/06/19 04:00:25;;;;;;;2.63;2.43;;;27.90;94.80;;;;;;5032226;28;20509;-68
2021/06/19 04:02:52;;;;;;;3.00;2.70;;;27.90;94.90;;;;;;5031458;28;20457;-69
2021/06/19 04:05:19;;;;;;;2.33;2.13;;;27.90;94.90;;;;;;5031317;28;20457;-69
2021/06/19 04:07:46;;;;;;;2.53;2.33;;;27.90;95.00;;;;;;5031713;28;20457;-69
2021/06/19 04:10:15;;;;;;;2.80;2.60;;;27.80;94.90;;;;;;5031763;28;20492;-68
2021/06/19 04:12:41;;;;;;;2.43;2.23;;;27.80;95.00;;;;;;5018703;28;20467;-68
2021/06/19 04:15:10;;;;;;;3.33;3.07;;;27.80;95.00;;;;;;5022577;28;20909;-69
2021/06/19 04:17:38;;;;;;;3.07;2.60;;;27.80;95.40;;;;;;5031457;28;20450;-68
2021/06/19 04:20:06;;;;;;;2.83;2.63;;;27.80;95.10;;;;;;5027893;28;20478;-69
2021/06/19 04:22:33;;;;;;;2.33;2.10;;;27.80;95.20;;;;;;5031295;28;20446;-68
2021/06/19 04:25:00;;;;;;;5.40;2.60;;;27.70;95.10;;;;;;5029791;28;20482;-69
2021/06/19 04:27:27;;;;;;;1.97;1.87;;;27.70;95.20;;;;;;5029936;28;20469;-68
2021/06/19 04:29:54;;;;;;;3.20;2.70;;;27.70;95.20;;;;;;5030251;28;20922;-68
2021/06/19 04:32:20;;;;;;;3.30;3.00;;;27.70;95.30;;;;;;5030705;28;20965;-68
2021/06/19 04:34:48;;;;;;;2.83;2.50;;;27.70;95.30;;;;;;5015245;28;20482;-68
2021/06/19 04:37:16;;;;;;;2.43;2.23;;;27.70;95.40;;;;;;5026918;28;20509;-68
2021/06/19 04:39:50;;;;;;;5.83;2.80;;;27.60;95.30;;;;;;5031316;28;20481;-68
2021/06/19 04:42:16;;;;;;;3.70;2.77;;;27.60;95.40;;;;;;5022752;28;20917;-68
2021/06/19 04:47:25;;;;;;;2.80;2.30;;;27.60;95.40;;;;;;5028280;28;20426;-69
2021/06/19 04:49:53;;;;;;;3.47;2.20;;;27.60;95.50;;;;;;5031266;28;20450;-68
2021/06/19 04:52:20;;;;;;;3.13;2.30;;;27.60;95.50;;;;;;5030757;28;20989;-69
2021/06/19 04:54:47;;;;;;;2.73;2.53;;;27.60;95.50;;;;;;5029913;28;20469;-68
2021/06/19 04:57:14;;;;;;;2.57;1.97;;;27.60;95.60;;;;;;5031182;28;20442;-68
2021/06/19 04:59:40;;;;;;;2.23;2.03;;;27.60;95.60;;;;;;5031626;28;20441;-69
2021/06/19 05:02:07;;;;;;;3.33;2.93;;;27.50;95.60;;;;;;5031493;28;20454;-68
2021/06/19 05:04:34;;;;;;;3.30;3.00;;;27.50;95.60;;;;;;5029162;28;20493;-68
2021/06/19 05:07:02;;;;;;;2.90;2.20;;;27.50;95.70;;;;;;5011018;28;20928;-68
2021/06/19 05:09:28;;;;;;;1.83;1.70;;;27.50;95.70;;;;;;5027852;28;20463;-68
2021/06/19 05:11:55;;;;;;;1.97;1.87;;;27.50;95.70;;;;;;5031046;28;20442;-68
2021/06/19 05:14:22;;;;;;;2.13;1.87;;;27.50;95.70;;;;;;5030786;28;20518;-68
2021/06/19 05:16:48;;;;;;;3.60;3.30;;;27.50;95.70;;;;;;5030193;28;20450;-68
2021/06/19 05:19:17;;;;;;;2.90;2.40;;;27.50;95.70;;;;;;5011423;28;20451;-69
2021/06/19 05:21:44;;;;;;;2.57;2.10;;;27.50;95.70;;;;;;5027704;28;20514;-68
2021/06/19 05:24:12;;;;;;;1.90;1.63;;;27.50;95.70;;;;;;5029693;28;20512;-68
2021/06/19 05:26:39;;;;;;;2.03;1.50;;;27.50;95.60;;;;;;5030707;28;20452;-67
2021/06/19 05:29:06;;;;;;;1.87;1.77;;;27.50;95.30;;;;;;5030147;28;20918;-68
2021/06/19 05:31:32;;;;;;;2.60;1.90;;;27.70;94.90;;;;;;5030083;28;20785;-70
2021/06/19 05:33:59;;;;;;;3.03;1.57;;;27.80;94.40;;;;;;5030013;28;20481;-70
2021/06/19 05:36:26;;;;;;;1.80;1.70;;;28.00;94.00;;;;;;5013891;28;20454;-71
2021/06/19 05:38:53;;;;;;;2.17;1.60;;;28.20;93.60;;;;;;5025398;28;20559;-71
2021/06/19 05:41:21;;;;;;;3.90;1.50;;;28.30;93.20;;;;;;5030107;28;20478;-71
2021/06/19 05:43:48;;;;;;;2.50;2.00;;;28.40;92.90;;;;;;5030722;28;20457;-70
2021/06/19 05:46:15;;;;;;;1.80;1.50;;;28.50;92.50;;;;;;5029803;28;20820;-71
2021/06/19 05:48:41;;;;;;;1.80;1.70;;;28.60;92.30;;;;;;5030373;28;20985;-70
2021/06/19 05:51:08;;;;;;;1.63;1.53;;;28.70;92.00;;;;;;5030364;28;20808;-70
2021/06/19 05:53:35;;;;;;;2.57;1.20;;;28.80;91.70;;;;;;5029116;28;20454;-71
2021/06/19 05:56:01;;;;;;;2.07;1.57;;;28.90;91.50;;;;;;5029186;28;20465;-70
2021/06/19 05:58:29;;;;;;;1.50;1.27;;;28.90;91.30;;;;;;5030296;28;20473;-70
2021/06/19 06:00:56;;;;;;;3.57;1.70;;;29.00;91.10;;;;;;5029712;28;20474;-70
2021/06/19 06:03:23;;;;;;;3.73;1.53;;;29.00;90.90;;;;;;5028293;28;20458;-70
2021/06/19 06:05:49;;;;;;;1.30;1.20;;;29.10;90.80;;;;;;5031670;28;20470;-71
2021/06/19 06:08:16;;;;;;;2.10;1.43;;;29.20;90.60;;;;;;5033478;28;21253;-70
2021/06/19 06:10:43;;;;;;;1.37;1.27;;;29.20;90.40;;;;;;5033951;28;20482;-70
2021/06/19 06:13:09;;;;;;;1.30;1.20;;;29.30;90.30;;;;;;5033121;28;20454;-72
2021/06/19 06:15:37;;;;;;;2.00;1.43;;;29.30;90.10;;;;;;5033589;28;20451;-70
2021/06/19 06:18:05;;;;;;;2.17;1.40;;;29.40;90.00;;;;;;5033395;28;20602;-70
2021/06/19 06:20:31;;;;;;;2.70;1.23;;;29.50;89.70;;;;;;5033638;28;20556;-71
2021/06/19 06:22:59;;;;;;;1.73;1.20;;;29.50;89.10;;;;;;5032893;28;20459;-70
2021/06/19 06:25:26;;;;;;;2.23;2.00;;;29.60;88.60;;;;;;5033008;28;20438;-70
2021/06/19 06:27:53;;;;;;;2.13;1.47;;;29.70;88.20;;;;;;5032438;28;20463;-70
2021/06/19 06:30:20;;;;;;;2.60;1.30;;;29.70;87.80;;;;;;5032803;28;20458;-70
2021/06/19 06:32:48;;;;;;;2.83;1.33;;;29.80;87.70;;;;;;5032668;28;20512;-70
2021/06/19 06:35:15;;;;;;;1.13;1.00;;;29.80;87.30;;;;;;5032824;28;20810;-71
2021/06/19 06:37:42;;;;;;;1.40;1.20;;;29.90;87.00;;;;;;5033479;28;20500;-70
2021/06/19 06:40:12;;;;;;;1.40;1.30;;;29.90;86.50;;;;;;5033740;28;20496;-70
2021/06/19 06:42:41;;;;;;;1.13;1.00;;;29.90;86.30;;;;;;5033287;28;20809;-70
2021/06/19 06:45:09;;;;;;;1.30;1.03;;;30.00;86.00;;;;;;5032569;28;20505;-69
2021/06/19 06:47:36;;;;;;;1.50;1.10;;;30.10;85.70;;;;;;5033203;28;20533;-70
2021/06/19 06:50:07;;;;;;;2.33;1.00;;;30.10;85.30;;;;;;5033682;28;20436;-71
2021/06/19 06:52:34;;;;;;;1.60;1.10;;;30.20;85.00;;;;;;5032497;28;20485;-70
2021/06/19 06:55:00;;;;;;;1.20;1.10;;;30.20;84.60;;;;;;5032420;28;20904;-70
2021/06/19 06:57:27;;;;;;;4.50;1.17;;;30.30;84.50;;;;;;5032476;28;20456;-70
2021/06/19 06:59:54;;;;;;;1.87;1.20;;;30.40;84.10;;;;;;5032218;28;20456;-68
2021/06/19 07:02:21;;;;;;;1.70;1.10;;;30.40;83.90;;;;;;5030949;28;20485;-70
2021/06/19 07:04:47;;;;;;;1.63;0.90;;;30.50;83.50;;;;;;5032211;28;20511;-71
2021/06/19 07:07:15;;;;;;;1.20;0.90;;;30.60;83.40;;;;;;5021820;28;20462;-71
2021/06/19 07:09:42;;;;;;;1.27;1.17;;;30.60;83.00;;;;;;5031586;28;20447;-70
2021/06/19 07:12:10;;;;;;;1.40;1.10;;;30.70;82.70;;;;;;5031584;28;20456;-70
2021/06/19 07:14:37;;;;;;;1.50;1.00;;;30.70;82.30;;;;;;5012016;28;20448;-70
2021/06/19 07:17:08;;;;;;;2.70;1.00;;;30.70;82.00;;;;;;5030560;28;20488;-70
2021/06/19 07:19:35;;;;;;;1.30;1.03;;;30.80;82.20;;;;;;5032137;28;20435;-70
2021/06/19 07:22:02;;;;;;;1.93;0.90;;;30.90;81.90;;;;;;5032616;28;20528;-69
2021/06/19 07:24:30;;;;;;;1.30;0.90;;;30.90;81.70;;;;;;5031869;28;20473;-70
2021/06/19 07:26:56;;;;;;;2.27;1.10;;;30.90;81.40;;;;;;5030841;28;20449;-70
2021/06/19 07:29:23;;;;;;;1.47;0.90;;;30.90;81.20;;;;;;5031200;28;20455;-70
2021/06/19 07:31:50;;;;;;;1.37;1.07;;;31.00;81.20;;;;;;5030255;28;20461;-69
2021/06/19 07:34:17;;;;;;;2.27;1.33;;;31.00;81.00;;;;;;5031094;28;20473;-70
2021/06/19 07:36:45;;;;;;;1.20;1.10;;;31.10;80.90;;;;;;5026846;28;20620;-70
2021/06/19 07:39:13;;;;;;;2.47;1.00;;;31.20;80.70;;;;;;5031137;28;20850;-70
2021/06/19 07:41:42;;;;;;;1.77;1.23;;;31.20;80.30;;;;;;5031924;28;20826;-69
2021/06/19 07:44:09;;;;;;;1.40;1.20;;;31.30;80.10;;;;;;5031262;28;20512;-70
2021/06/19 07:46:36;;;;;;;1.30;1.20;;;31.30;79.90;;;;;;5029271;28;20494;-69
2021/06/19 07:49:03;;;;;;;1.40;1.00;;;31.40;79.30;;;;;;5031598;28;20458;-69
2021/06/19 07:51:30;;;;;;;1.90;1.00;;;31.50;79.60;;;;;;5030769;28;20466;-70
2021/06/19 07:53:57;;;;;;;1.57;1.00;;;31.50;79.20;;;;;;5030403;28;20458;-69
2021/06/19 07:56:25;;;;;;;1.23;1.00;;;31.60;79.00;;;;;;5031709;28;20533;-70
2021/06/19 07:58:53;;;;;;;2.40;0.93;;;31.70;78.80;;;;;;5025544;28;20451;-70
2021/06/19 08:01:19;;;;;;;1.83;1.13;;;31.70;78.70;;;;;;5028007;28;20532;-69
2021/06/19 08:03:46;;;;;;;1.00;0.80;;;31.80;78.40;;;;;;5030796;28;20450;-69
2021/06/19 08:06:13;;;;;;;1.30;1.10;;;31.80;78.00;;;;;;5027119;28;20504;-70
2021/06/19 08:08:40;;;;;;;1.20;0.90;;;31.80;78.20;;;;;;5029818;28;20524;-70
2021/06/19 08:11:07;;;;;;;1.30;1.20;;;31.90;78.00;;;;;;5031031;28;20507;-69
2021/06/19 08:13:33;;;;;;;1.10;0.90;;;32.00;78.00;;;;;;5032000;28;20880;-70
2021/06/19 08:16:04;;;;;;;1.10;0.90;;;32.00;77.70;;;;;;5031906;28;20442;-69
2021/06/19 08:18:31;;;;;;;1.20;0.83;;;32.10;77.60;;;;;;5031744;28;20458;-70
2021/06/19 08:20:58;;;;;;;1.63;1.10;;;32.10;77.40;;;;;;5031097;28;20561;-70
2021/06/19 08:23:25;;;;;;;1.00;0.70;;;32.20;77.10;;;;;;5029986;28;21000;-70
2021/06/19 08:25:52;;;;;;;2.30;0.97;;;32.20;76.90;;;;;;5031147;28;20519;-69
2021/06/19 08:28:18;;;;;;;5.77;1.40;;;32.30;77.10;;;;;;5018812;28;20471;-70
2021/06/19 08:30:45;;;;;;;1.40;0.97;;;32.30;76.70;;;;;;5018278;28;20915;-69
2021/06/19 08:33:13;;;;;;;1.20;1.00;;;32.30;76.30;;;;;;5029391;28;20552;-70
2021/06/19 08:35:40;;;;;;;2.60;0.90;;;32.30;76.30;;;;;;5027044;28;20454;-69
2021/06/19 08:38:06;;;;;;;1.50;1.00;;;32.40;76.10;;;;;;5030029;28;20458;-69
2021/06/19 08:40:35;;;;;;;2.03;1.00;;;32.40;75.90;;;;;;5029983;28;20458;-70
2021/06/19 08:43:02;;;;;;;1.10;0.90;;;32.40;75.90;;;;;;5027668;28;20481;-69
2021/06/19 08:45:31;;;;;;;1.37;1.00;;;32.50;75.80;;;;;;5016950;28;20475;-69
2021/06/19 08:47:59;;;;;;;2.27;0.93;;;32.40;75.70;;;;;;5025720;28;20919;-70
2021/06/19 08:50:28;;;;;;;1.00;0.80;;;32.50;75.60;;;;;;5028923;28;20450;-69
2021/06/19 08:52:54;;;;;;;1.50;0.90;;;32.50;75.70;;;;;;5029642;28;20493;-69
2021/06/19 08:55:21;;;;;;;2.00;0.87;;;32.60;75.40;;;;;;5029923;28;20443;-69
2021/06/19 08:57:48;;;;;;;1.53;1.00;;;32.60;75.00;;;;;;5029068;28;20465;-69
2021/06/19 09:00:17;;;;;;;1.20;1.00;;;32.60;75.10;;;;;;5018863;28;20458;-69
2021/06/19 09:02:46;;;;;;;2.20;0.90;;;32.60;75.20;;;;;;5014832;28;20808;-69
2021/06/19 09:05:14;;;;;;;1.23;0.80;;;32.60;75.00;;;;;;5010418;28;20461;-69
2021/06/19 09:07:45;;;;;;;16.73;1.37;;;32.60;75.30;;;;;;5019205;28;20528;-69
2021/06/19 09:10:23;;;;;;;1.10;0.90;;;32.60;74.50;;;;;;5028862;28;20981;-69
2021/06/19 09:12:58;;;;;;;2.17;0.93;;;32.60;74.60;;;;;;5030090;28;20457;-69
2021/06/19 09:15:24;;;;;;;1.17;0.90;;;32.60;73.90;;;;;;5028713;28;20562;-69
2021/06/19 09:18:05;;;;;;;1.67;1.00;;;32.60;74.50;;;;;;5030044;28;20453;-69
2021/06/19 09:20:34;;;;;;;1.67;1.10;;;32.60;74.10;;;;;;5030582;28;20461;-69
2021/06/19 09:23:07;;;;;;;1.30;1.00;;;32.60;74.60;;;;;;5015725;28;20478;-69
2021/06/19 09:25:34;;;;;;;2.03;0.83;;;32.50;74.40;;;;;;5010553;28;20456;-69
2021/06/19 09:28:01;;;;;;;2.50;1.13;;;32.50;74.90;;;;;;5027804;28;20469;-71
2021/06/19 09:30:30;;;;;;;1.20;0.90;;;32.50;74.80;;;;;;5029908;28;20473;-68
2021/06/19 09:32:58;;;;;;;2.00;0.90;;;32.50;74.20;;;;;;5030303;28;20461;-68
2021/06/19 09:35:29;;;;;;;1.50;1.20;;;32.50;74.70;;;;;;5029609;28;20470;-68
2021/06/19 09:37:58;;;;;;;1.30;0.87;;;32.50;74.30;;;;;;5030513;28;20446;-68
2021/06/19 09:40:32;;;;;;;1.23;0.90;;;32.50;74.20;;;;;;5032324;28;20512;-68
2021/06/19 09:43:11;;;;;;;2.13;0.90;;;32.40;73.80;;;;;;5033504;28;20510;-68
2021/06/19 09:45:39;;;;;;;1.53;0.90;;;32.40;74.30;;;;;;5033106;28;20462;-68
2021/06/19 09:48:06;;;;;;;1.00;0.80;;;32.40;74.20;;;;;;5034196;28;20474;-68
2021/06/19 09:50:33;;;;;;;1.30;1.00;;;32.40;74.20;;;;;;5033644;28;20499;-68
2021/06/19 09:53:13;;;;;;;2.13;1.00;;;32.40;74.40;;;;;;5031858;28;20473;-69
2021/06/19 09:56:04;;;;;;;1.03;0.87;;;32.30;74.50;;;;;;5031533;28;20461;-68
2021/06/19 09:58:38;;;;;;;1.63;0.87;;;32.30;74.50;;;;;;5025958;28;20446;-68
2021/06/19 10:01:05;;;;;;;1.30;0.90;;;32.30;73.50;;;;;;5033836;28;20537;-69
2021/06/19 10:03:50;;;;;;;1.83;0.90;;;32.30;74.10;;;;;;5033964;28;20965;-68
2021/06/19 10:06:16;;;;;;;2.00;0.97;;;32.30;73.70;;;;;;5033380;28;20454;-68
2021/06/19 10:08:45;;;;;;;2.80;1.10;;;32.30;74.20;;;;;;5034630;28;20446;-68
2021/06/19 10:11:14;;;;;;;1.90;0.97;;;32.30;74.30;;;;;;5034484;28;20442;-68
2021/06/19 10:13:41;;;;;;;1.53;1.10;;;32.30;74.70;;;;;;5032818;28;20524;-68
2021/06/19 10:16:09;;;;;;;4.23;0.90;;;32.30;74.00;;;;;;5033756;28;20954;-68
2021/06/19 10:18:36;;;;;;;1.20;1.00;;;32.20;74.00;;;;;;5032633;28;20980;-68
2021/06/19 10:21:04;;;;;;;1.70;1.00;;;32.20;74.50;;;;;;5032861;28;20798;-69
2021/06/19 10:23:31;;;;;;;1.00;0.80;;;32.20;75.40;;;;;;5031919;28;20500;-68
2021/06/19 10:25:58;;;;;;;1.83;1.10;;;32.10;73.90;;;;;;5033009;28;20444;-69
2021/06/19 10:28:27;;;;;;;1.90;1.20;;;32.10;73.40;;;;;;5033356;28;20443;-68
2021/06/19 10:30:56;;;;;;;1.50;1.00;;;32.10;74.10;;;;;;5031698;28;20469;-68
2021/06/19 10:33:27;;;;;;;2.33;0.90;;;32.10;73.80;;;;;;5032626;28;20477;-68
2021/06/19 10:35:56;;;;;;;1.60;0.97;;;32.10;74.60;;;;;;5032359;28;20442;-68
2021/06/19 10:38:23;;;;;;;1.00;0.80;;;32.10;74.50;;;;;;5032593;28;20452;-68
2021/06/19 10:40:55;;;;;;;1.00;0.80;;;32.00;74.20;;;;;;5032718;28;20473;-68
2021/06/19 10:43:22;;;;;;;1.27;0.80;;;32.00;74.40;;;;;;5033265;28;20484;-68
2021/06/19 10:45:51;;;;;;;1.20;0.90;;;32.00;74.40;;;;;;5031626;28;20482;-68
2021/06/19 10:48:19;;;;;;;1.10;0.80;;;31.90;74.40;;;;;;5032677;28;20457;-68
2021/06/19 10:50:47;;;;;;;1.50;1.00;;;31.90;74.60;;;;;;5028349;28;20830;-68
2021/06/19 10:53:15;;;;;;;1.20;1.00;;;31.90;74.20;;;;;;5032802;28;20454;-68
2021/06/19 10:55:57;;;;;;;2.37;0.83;;;31.90;74.20;;;;;;5033096;28;20477;-68
2021/06/19 10:58:25;;;;;;;1.20;1.00;;;31.90;74.30;;;;;;5030344;28;20480;-68
2021/06/19 11:00:55;;;;;;;2.10;0.90;;;31.90;74.30;;;;;;5032806;28;20450;-67
2021/06/19 11:03:45;;;;;;;1.47;0.80;;;31.90;74.00;;;;;;5032873;28;20474;-67
2021/06/19 11:06:23;;;;;;;1.67;1.00;;;31.80;74.30;;;;;;5031564;28;20450;-67
2021/06/19 11:09:08;;;;;;;2.20;0.93;;;31.80;73.90;;;;;;5015546;28;20480;-67
2021/06/19 11:11:55;;;;;;;1.30;0.80;;;31.80;74.10;;;;;;5032659;28;20450;-68
2021/06/19 11:15:02;;;;;;;2.27;0.90;;;31.80;74.00;;;;;;5032115;28;20454;-68
2021/06/19 11:17:50;;;;;;;1.50;0.90;;;31.80;73.90;;;;;;5026894;28;20454;-68
2021/06/19 11:20:25;;;;;;;1.20;0.83;;;31.80;73.60;;;;;;5027666;28;20474;-68
2021/06/19 11:23:02;;;;;;;1.10;0.90;;;31.80;74.10;;;;;;5030806;28;20477;-68
2021/06/19 11:25:39;;;;;;;0.90;0.70;;;31.80;74.30;;;;;;5031040;28;20450;-68
2021/06/19 11:28:07;;;;;;;1.30;0.90;;;31.80;73.80;;;;;;5023885;28;20783;-68
2021/06/19 11:30:48;;;;;;;1.30;1.00;;;31.80;73.50;;;;;;5036492;28;20907;-68
2021/06/19 11:33:42;;;;;;;1.10;0.80;;;31.70;73.00;;;;;;5034162;28;20501;-68
2021/06/19 11:36:39;;;;;;;1.07;0.87;;;31.70;74.10;;;;;;5031964;28;20597;-68
2021/06/19 11:39:14;;;;;;;1.20;0.90;;;31.70;74.30;;;;;;5031398;28;20435;-68
2021/06/19 11:41:50;;;;;;;1.30;0.90;;;31.70;74.30;;;;;;5032096;28;20473;-68
2021/06/19 11:44:19;;;;;;;1.00;0.80;;;31.70;74.00;;;;;;5031901;28;20461;-68
2021/06/19 11:46:51;;;;;;;1.60;0.80;;;31.70;74.20;;;;;;5032217;28;20443;-68
2021/06/19 11:49:25;;;;;;;1.20;0.90;;;31.60;74.30;;;;;;5030020;28;20450;-68
2021/06/19 11:51:52;;;;;;;4.10;0.90;;;31.60;73.70;;;;;;5030779;28;20756;-68
2021/06/19 11:54:19;;;;;;;1.50;1.00;;;31.60;73.70;;;;;;5031085;28;20446;-68
2021/06/19 11:56:46;;;;;;;1.10;0.80;;;31.60;73.30;;;;;;5032638;28;20438;-68
2021/06/19 11:59:14;;;;;;;1.10;0.90;;;31.60;73.10;;;;;;5032480;28;20454;-67
2021/06/19 12:01:42;;;;;;;1.03;0.80;;;31.60;73.50;;;;;;5031981;28;20494;-68
2021/06/19 12:04:12;;;;;;;1.33;1.00;;;31.60;73.50;;;;;;5031681;28;20454;-68
2021/06/19 12:06:41;;;;;;;1.40;1.00;;;31.50;73.90;;;;;;5031137;28;20450;-68
2021/06/19 12:09:10;;;;;;;1.50;0.77;;;31.50;73.10;;;;;;5030908;28;20454;-68
2021/06/19 12:11:38;;;;;;;1.10;0.70;;;31.50;73.60;;;;;;5030826;28;20519;-68
2021/06/19 12:14:20;;;;;;;1.10;0.90;;;31.50;73.40;;;;;;5031606;28;20456;-68
2021/06/19 12:16:50;;;;;;;1.50;0.77;;;31.50;73.40;;;;;;5027804;28;20466;-69
2021/06/19 12:19:18;;;;;;;1.77;0.97;;;31.50;73.60;;;;;;5030254;28;20463;-69
2021/06/19 12:21:46;;;;;;;1.10;1.00;;;31.50;73.70;;;;;;5030283;28;20453;-69
2021/06/19 12:24:25;;;;;;;1.83;0.83;;;31.50;73.70;;;;;;5030013;28;20468;-69
2021/06/19 12:27:05;;;;;;;1.50;0.90;;;31.40;73.70;;;;;;5030331;28;20440;-69
2021/06/19 12:29:44;;;;;;;1.30;1.10;;;31.40;73.90;;;;;;5030668;28;20450;-69
2021/06/19 12:32:28;;;;;;;1.40;0.90;;;31.40;73.60;;;;;;5030599;28;20445;-69
2021/06/19 12:34:58;;;;;;;1.20;0.87;;;31.40;72.70;;;;;;5029946;28;20469;-68
2021/06/19 12:37:29;;;;;;;2.13;1.10;;;31.40;72.60;;;;;;5030433;28;20438;-68
2021/06/19 12:39:57;;;;;;;1.17;1.03;;;31.40;73.30;;;;;;5030104;28;20462;-68
2021/06/19 12:42:38;;;;;;;2.43;1.00;;;31.40;73.30;;;;;;5029080;28;20485;-68
2021/06/19 12:45:11;;;;;;;2.90;0.90;;;31.40;73.40;;;;;;5012034;28;20466;-68
2021/06/19 12:47:40;;;;;;;1.53;0.93;;;31.40;73.20;;;;;;5020212;28;20783;-69
2021/06/19 12:50:08;;;;;;;1.10;0.80;;;31.40;73.30;;;;;;5030367;28;20452;-69
2021/06/19 12:52:54;;;;;;;1.73;0.90;;;31.40;73.10;;;;;;5021406;28;20490;-68
2021/06/19 12:55:22;;;;;;;1.83;0.80;;;31.40;73.40;;;;;;5011773;28;20446;-69
2021/06/19 12:58:03;;;;;;;1.67;0.90;;;31.40;73.40;;;;;;5021136;28;20446;-69
2021/06/19 13:00:36;;;;;;;4.00;0.90;;;31.40;73.50;;;;;;5032235;28;20878;-69